createdAt,value
2023-05-03T00:08:40.891Z,11.41
2023-05-03T00:18:49.354Z,11.49
2023-05-03T00:28:53.438Z,11.52
2023-05-03T00:38:56.970Z,11.51
2023-05-03T00:49:00.863Z,11.44
2023-05-03T00:59:09.423Z,11.34
2023-05-03T01:09:14.914Z,11.31
2023-05-03T01:19:28.655Z,11.30
2023-05-03T01:29:32.365Z,11.33
2023-05-03T01:39:37.085Z,11.33
2023-05-03T01:49:40.904Z,11.29
2023-05-03T01:59:44.617Z,11.12
2023-05-03T02:09:47.940Z,10.88
2023-05-03T02:19:55.613Z,10.61
2023-05-03T02:29:59.086Z,10.49
2023-05-03T02:40:02.569Z,10.53
2023-05-03T02:50:07.407Z,10.53
2023-05-03T03:00:13.015Z,10.54
2023-05-03T03:10:20.326Z,10.47
2023-05-03T03:20:23.962Z,10.31
2023-05-03T03:30:27.561Z,10.17
2023-05-03T03:40:31.691Z,10.09
2023-05-03T03:50:35.290Z,10.05
2023-05-03T04:00:39.562Z,9.99
2023-05-03T04:10:43.471Z,10.00
2023-05-03T04:20:47.040Z,10.07
2023-05-03T04:30:51.265Z,10.10
2023-05-03T04:40:54.821Z,10.02
2023-05-03T04:50:58.792Z,9.98
2023-05-03T05:01:03.573Z,10.15
2023-05-03T05:11:07.712Z,10.45
2023-05-03T05:21:14.016Z,10.99
2023-05-03T05:31:17.992Z,11.01
2023-05-03T05:41:21.767Z,11.14
2023-05-03T05:51:30.681Z,11.22
2023-05-03T06:01:34.384Z,11.43
2023-05-03T06:11:38.896Z,11.37
2023-05-03T06:21:42.893Z,11.06
2023-05-03T06:31:46.487Z,10.90
2023-05-03T06:41:50.346Z,10.93
2023-05-03T06:51:54.032Z,11.04
2023-05-03T07:01:58.038Z,11.03
2023-05-03T07:12:01.995Z,11.22
2023-05-03T07:22:17.416Z,11.44
2023-05-03T07:32:24.413Z,11.88
2023-05-03T07:42:28.101Z,11.89
2023-05-03T07:52:32.017Z,11.89
2023-05-03T08:02:35.653Z,12.08
2023-05-03T08:12:39.842Z,12.45
2023-05-03T08:22:46.266Z,12.27
2023-05-03T08:32:50.968Z,12.20
2023-05-03T08:42:55.750Z,12.43
2023-05-03T08:53:00.232Z,12.18
2023-05-03T09:13:09.177Z,12.10
2023-05-03T09:23:13.009Z,12.18
2023-05-03T09:33:28.589Z,12.34
2023-05-03T09:43:33.588Z,12.60
2023-05-03T09:53:38.739Z,12.74
2023-05-03T10:03:44.216Z,12.69
2023-05-03T10:13:48.007Z,13.25
2023-05-03T10:24:11.656Z,13.60
2023-05-03T10:34:21.115Z,13.82
2023-05-03T10:44:27.756Z,13.85
2023-05-03T10:54:31.425Z,13.87
2023-05-03T11:04:35.463Z,14.04
2023-05-03T11:14:39.220Z,14.32
2023-05-03T11:24:42.809Z,14.23
2023-05-03T11:34:46.687Z,14.91
2023-05-03T11:44:50.941Z,15.04
2023-05-03T11:54:56.864Z,14.74
2023-05-03T12:05:01.911Z,15.07
2023-05-03T12:15:08.088Z,15.50
2023-05-03T12:25:15.245Z,14.58
2023-05-03T12:35:20.351Z,14.55
2023-05-03T12:45:28.350Z,14.72
2023-05-03T12:55:33.473Z,14.29
2023-05-03T13:05:38.102Z,14.60
2023-05-03T13:15:43.134Z,15.20
2023-05-03T13:25:46.931Z,15.31
2023-05-03T13:35:50.574Z,15.42
2023-05-03T13:46:00.354Z,15.51
2023-05-03T13:56:04.133Z,15.65
2023-05-03T14:06:07.746Z,15.55
2023-05-03T14:16:17.558Z,15.04
2023-05-03T14:26:26.277Z,15.14
2023-05-03T14:36:34.261Z,15.14
2023-05-03T14:46:37.909Z,15.28
2023-05-03T14:56:42.106Z,15.54
2023-05-03T15:06:46.013Z,15.41
2023-05-03T15:16:49.820Z,15.32
2023-05-03T15:26:53.831Z,15.20
2023-05-03T15:36:57.554Z,14.77
2023-05-03T15:47:00.881Z,14.51
2023-05-03T15:57:05.305Z,14.04
2023-05-03T16:07:12.377Z,13.73
2023-05-03T16:17:19.406Z,13.55
2023-05-03T16:27:22.960Z,13.44
2023-05-03T16:37:26.987Z,13.18
2023-05-03T16:47:32.871Z,13.05
2023-05-03T16:57:40.596Z,12.95
2023-05-03T17:07:47.463Z,12.79
2023-05-03T17:17:51.087Z,12.65
2023-05-03T17:27:55.200Z,12.45
2023-05-03T17:37:59.677Z,12.22
2023-05-03T17:48:06.279Z,11.95
2023-05-03T17:58:10.975Z,11.63
2023-05-03T18:08:14.952Z,11.22
2023-05-03T18:18:22.783Z,10.83
2023-05-03T18:28:27.091Z,10.50
2023-05-03T18:38:30.886Z,10.17
2023-05-03T18:48:35.011Z,9.78
2023-05-03T18:58:38.770Z,9.41
2023-05-03T19:08:43.176Z,9.01
2023-05-03T19:18:47.622Z,8.71
2023-05-03T19:28:51.123Z,8.59
2023-05-03T19:38:54.973Z,8.50
2023-05-03T19:48:58.989Z,8.33
2023-05-03T19:59:06.503Z,7.93
2023-05-03T20:09:10.735Z,7.50
2023-05-03T20:19:14.527Z,7.26
2023-05-03T20:29:18.552Z,7.17
2023-05-03T20:39:22.151Z,7.12
2023-05-03T20:49:26.335Z,6.78
2023-05-03T20:59:30.458Z,6.43
2023-05-03T21:09:58.573Z,6.34
2023-05-03T21:20:02.705Z,6.25
2023-05-03T21:30:19.940Z,6.19
2023-05-03T21:40:23.422Z,6.11
2023-05-03T21:50:27.088Z,5.78
2023-05-03T22:00:31.312Z,5.42
2023-05-03T22:10:34.861Z,5.41
2023-05-03T22:20:38.471Z,5.41
2023-05-03T22:30:42.144Z,5.37
2023-05-03T22:40:45.957Z,5.25
2023-05-03T22:50:53.376Z,4.88
2023-05-03T23:00:57.823Z,4.53
2023-05-03T23:11:01.396Z,4.50
2023-05-03T23:21:05.442Z,4.57
2023-05-03T23:31:09.006Z,4.42
2023-05-03T23:41:13.115Z,4.19
2023-05-03T23:51:16.790Z,4.03
